createdAt,value
2019-01-21T00:00:01.067Z,7.37
2019-01-21T00:02:28.550Z,8.17
2019-01-21T00:04:56.154Z,8.30
2019-01-21T00:07:23.538Z,7.90
2019-01-21T00:09:50.928Z,7.60
2019-01-21T00:12:18.534Z,6.63
2019-01-21T00:14:45.936Z,6.93
2019-01-21T00:17:13.325Z,6.43
2019-01-21T00:19:40.800Z,6.40
2019-01-21T00:22:08.198Z,7.23
2019-01-21T00:24:35.616Z,7.00
2019-01-21T00:27:03.420Z,6.97
2019-01-21T00:29:30.838Z,7.10
2019-01-21T00:31:58.224Z,7.70
2019-01-21T00:34:25.809Z,7.83
2019-01-21T00:36:53.192Z,8.87
2019-01-21T00:39:20.573Z,8.73
2019-01-21T00:41:48.037Z,8.00
2019-01-21T00:44:15.427Z,8.63
2019-01-21T00:46:42.837Z,7.30
2019-01-21T00:49:10.570Z,8.60
2019-01-21T00:51:37.956Z,6.93
2019-01-21T00:54:05.717Z,8.50
2019-01-21T00:56:33.573Z,8.80
2019-01-21T00:59:00.972Z,6.57
2019-01-21T01:01:28.341Z,8.13
2019-01-21T01:03:55.958Z,6.80
2019-01-21T01:06:23.362Z,8.70
2019-01-21T01:08:50.738Z,8.10
2019-01-21T01:11:18.459Z,7.97
2019-01-21T01:13:45.840Z,6.83
2019-01-21T01:16:13.229Z,6.87
2019-01-21T01:18:40.833Z,7.27
2019-01-21T01:21:08.219Z,7.20
2019-01-21T01:23:35.599Z,6.60
2019-01-21T01:26:03.133Z,7.93
2019-01-21T01:28:30.541Z,8.20
2019-01-21T01:30:57.930Z,9.03
2019-01-21T01:33:25.365Z,8.80
2019-01-21T01:35:52.762Z,8.00
2019-01-21T01:38:20.150Z,9.00
2019-01-21T01:40:47.770Z,8.50
2019-01-21T01:43:15.160Z,6.73
2019-01-21T01:45:42.546Z,6.50
2019-01-21T01:48:10.070Z,6.63
2019-01-21T01:50:37.460Z,6.80
2019-01-21T01:53:05.114Z,6.53
2019-01-21T01:55:33.884Z,6.37
2019-01-21T01:58:03.211Z,6.70
2019-01-21T02:00:30.605Z,6.33
2019-01-21T02:02:58.458Z,6.70
2019-01-21T02:05:25.838Z,6.53
2019-01-21T02:07:53.218Z,6.50
2019-01-21T02:10:20.924Z,6.57
2019-01-21T02:12:48.605Z,7.20
2019-01-21T02:15:16.214Z,7.90
2019-01-21T02:17:43.818Z,8.80
2019-01-21T02:20:12.013Z,8.60
2019-01-21T02:22:42.743Z,7.70
2019-01-21T02:25:10.787Z,6.97
2019-01-21T02:28:05.068Z,8.77
2019-01-21T02:31:14.493Z,6.70
2019-01-21T02:34:08.492Z,7.97
2019-01-21T02:36:59.374Z,8.10
2019-01-21T02:39:59.582Z,8.10
2019-01-21T02:42:52.576Z,7.60
2019-01-21T02:45:59.838Z,8.30
2019-01-21T02:49:12.390Z,8.43
2019-01-21T02:52:16.797Z,8.20
2019-01-21T02:54:59.501Z,8.27
2019-01-21T02:58:12.408Z,8.83
2019-01-21T03:01:33.821Z,9.20
2019-01-21T03:04:30.732Z,7.00
2019-01-21T03:07:16.168Z,7.77
2019-01-21T03:09:53.597Z,9.20
2019-01-21T03:13:01.819Z,8.70
2019-01-21T03:16:03.336Z,8.67
2019-01-21T03:19:04.027Z,7.33
2019-01-21T03:22:44.077Z,7.43
2019-01-21T03:25:33.623Z,10.33
2019-01-21T03:28:47.947Z,9.77
2019-01-21T03:32:12.414Z,9.90
2019-01-21T03:35:22.652Z,8.97
2019-01-21T03:38:34.110Z,7.77
2019-01-21T03:41:23.975Z,10.20
2019-01-21T03:44:21.019Z,8.30
2019-01-21T03:47:31.288Z,7.50
2019-01-21T03:50:55.932Z,7.77
2019-01-21T03:54:14.259Z,6.57
2019-01-21T03:57:26.336Z,7.87
2019-01-21T04:00:22.263Z,7.00
2019-01-21T04:03:34.741Z,7.23
2019-01-21T04:06:10.494Z,8.40
2019-01-21T04:09:04.268Z,9.30
2019-01-21T04:11:50.353Z,9.30
2019-01-21T04:15:27.109Z,8.70
2019-01-21T04:18:30.061Z,9.00
2019-01-21T04:21:28.463Z,9.17
2019-01-21T04:24:47.379Z,9.70
2019-01-21T04:27:37.958Z,10.30
2019-01-21T04:30:50.175Z,9.40
2019-01-21T04:33:52.069Z,9.47
2019-01-21T04:37:02.225Z,7.67
2019-01-21T04:40:02.107Z,8.10
2019-01-21T04:43:03.141Z,8.83
2019-01-21T04:46:08.358Z,8.37
2019-01-21T04:49:12.046Z,9.43
2019-01-21T04:52:18.470Z,11.03
2019-01-21T04:55:17.678Z,10.70
2019-01-21T04:58:25.366Z,10.13
2019-01-21T05:01:37.130Z,8.47
2019-01-21T05:04:30.888Z,9.10
2019-01-21T05:07:45.072Z,9.57
2019-01-21T05:10:52.735Z,10.10
2019-01-21T05:14:14.310Z,9.87
2019-01-21T05:16:53.206Z,8.10
2019-01-21T05:19:48.515Z,8.20
2019-01-21T05:22:57.501Z,9.00
2019-01-21T05:25:42.725Z,8.50
2019-01-21T05:29:00.006Z,10.17
2019-01-21T05:32:04.062Z,9.13
2019-01-21T05:34:51.704Z,9.50
2019-01-21T05:37:38.731Z,9.97
2019-01-21T05:41:03.456Z,11.77
2019-01-21T05:44:30.813Z,10.60
2019-01-21T05:47:54.026Z,11.90
2019-01-21T05:51:02.075Z,10.87
2019-01-21T05:54:12.998Z,10.60
2019-01-21T05:56:53.806Z,11.37
2019-01-21T06:00:02.891Z,12.13
2019-01-21T06:02:52.864Z,10.70
2019-01-21T06:06:08.677Z,9.63
2019-01-21T06:09:17.782Z,10.77
2019-01-21T06:12:32.687Z,10.23
2019-01-21T06:15:34.518Z,9.27
2019-01-21T06:18:34.018Z,12.00
2019-01-21T06:21:55.162Z,10.60
2019-01-21T06:24:57.909Z,11.53
2019-01-21T06:27:49.965Z,11.30
2019-01-21T06:30:42.813Z,11.40
2019-01-21T06:33:37.520Z,11.67
2019-01-21T06:36:24.367Z,10.37
2019-01-21T06:39:48.870Z,9.83
2019-01-21T06:42:52.702Z,11.20
2019-01-21T06:46:16.018Z,10.53
2019-01-21T06:49:20.515Z,10.20
2019-01-21T06:52:28.042Z,11.37
2019-01-21T06:55:40.259Z,11.50
2019-01-21T06:58:57.583Z,10.77
2019-01-21T07:01:39.517Z,10.20
2019-01-21T07:04:45.392Z,10.60
2019-01-21T07:07:42.375Z,10.10
2019-01-21T07:10:37.952Z,10.33
2019-01-21T07:13:42.853Z,11.30
2019-01-21T07:16:34.584Z,10.20
2019-01-21T07:19:27.397Z,10.47
2019-01-21T07:22:54.667Z,9.67
2019-01-21T07:25:41.818Z,10.70
2019-01-21T07:28:20.376Z,10.67
2019-01-21T07:31:21.126Z,10.60
2019-01-21T07:34:36.297Z,11.10
2019-01-21T07:37:16.219Z,10.83
2019-01-21T07:40:31.325Z,12.30
2019-01-21T07:43:29.206Z,10.87
2019-01-21T07:46:24.598Z,11.50
2019-01-21T07:49:29.082Z,14.47
2019-01-21T07:52:40.242Z,13.13
2019-01-21T07:55:32.013Z,11.80
2019-01-21T07:58:38.842Z,11.10
2019-01-21T08:01:19.222Z,11.70
2019-01-21T08:04:40.128Z,13.83
2019-01-21T08:07:17.138Z,10.70
2019-01-21T08:10:47.373Z,12.23
2019-01-21T08:13:32.141Z,9.77
2019-01-21T08:16:47.572Z,11.97
2019-01-21T08:19:59.814Z,13.50
2019-01-21T08:23:21.342Z,14.60
2019-01-21T08:26:35.914Z,14.30
2019-01-21T08:29:45.580Z,12.37
2019-01-21T08:33:00.123Z,12.23
2019-01-21T08:35:43.778Z,11.60
2019-01-21T08:38:24.099Z,13.70
2019-01-21T08:41:33.526Z,11.80
2019-01-21T08:44:38.751Z,12.40
2019-01-21T08:47:43.910Z,14.87
2019-01-21T08:50:37.637Z,15.60
2019-01-21T08:53:34.218Z,13.80
2019-01-21T08:56:52.554Z,15.80
2019-01-21T08:59:27.631Z,15.03
2019-01-21T09:02:43.584Z,16.37
2019-01-21T09:05:42.536Z,15.40
2019-01-21T09:08:37.454Z,16.10
2019-01-21T09:11:47.114Z,17.13
2019-01-21T09:14:53.827Z,15.93
2019-01-21T09:18:05.007Z,18.03
2019-01-21T09:21:05.920Z,19.77
2019-01-21T09:24:19.582Z,19.77
2019-01-21T09:27:34.891Z,19.83
2019-01-21T09:30:50.336Z,18.30
2019-01-21T09:33:52.487Z,15.60
2019-01-21T09:36:46.982Z,14.40
2019-01-21T09:39:59.055Z,13.63
2019-01-21T09:43:08.235Z,13.20
2019-01-21T09:46:18.203Z,12.60
2019-01-21T09:48:44.609Z,14.80
2019-01-21T09:51:13.501Z,13.20
2019-01-21T09:53:45.119Z,15.20
2019-01-21T09:56:12.966Z,16.30
2019-01-21T09:58:43.091Z,13.30
2019-01-21T10:01:10.527Z,15.80
2019-01-21T10:03:38.411Z,16.90
2019-01-21T10:06:08.037Z,13.27
2019-01-21T10:08:47.873Z,14.57
2019-01-21T10:11:47.220Z,12.93
2019-01-21T10:14:55.719Z,13.30
2019-01-21T10:18:04.969Z,12.53
2019-01-21T10:20:50.293Z,13.97
2019-01-21T10:24:02.762Z,14.30
2019-01-21T10:27:05.783Z,14.20
2019-01-21T10:29:49.043Z,13.33
2019-01-21T10:33:02.322Z,13.23
2019-01-21T10:35:57.525Z,16.50
2019-01-21T10:39:01.509Z,16.37
2019-01-21T10:41:43.644Z,16.60
2019-01-21T10:44:44.746Z,17.70
2019-01-21T10:47:47.518Z,17.43
2019-01-21T10:50:31.363Z,18.37
2019-01-21T10:53:33.733Z,17.20
2019-01-21T10:56:17.338Z,17.90
2019-01-21T10:59:01.090Z,18.87
2019-01-21T11:01:47.635Z,18.40
2019-01-21T11:04:27.747Z,17.40
2019-01-21T11:07:41.131Z,21.00
2019-01-21T11:10:49.757Z,18.37
2019-01-21T11:13:56.287Z,19.60
2019-01-21T11:16:42.594Z,19.43
2019-01-21T11:20:03.763Z,18.40
2019-01-21T11:22:46.424Z,19.37
2019-01-21T11:25:50.370Z,17.50
2019-01-21T11:28:49.781Z,16.87
2019-01-21T11:31:47.490Z,16.10
2019-01-21T11:34:40.898Z,16.10
2019-01-21T11:37:45.682Z,16.87
2019-01-21T11:40:47.679Z,17.47
2019-01-21T11:44:12.102Z,18.10
2019-01-21T11:47:04.248Z,17.57
2019-01-21T11:49:50.222Z,15.07
2019-01-21T11:52:32.322Z,14.43
2019-01-21T11:55:43.758Z,15.47
2019-01-21T11:58:52.370Z,17.27
2019-01-21T12:02:20.238Z,15.30
2019-01-21T12:05:25.802Z,13.83
2019-01-21T12:08:30.854Z,15.40
2019-01-21T12:11:21.558Z,14.60
2019-01-21T12:14:17.022Z,16.03
2019-01-21T12:17:28.482Z,14.20
2019-01-21T12:20:22.275Z,16.27
2019-01-21T12:23:03.989Z,14.70
2019-01-21T12:25:51.118Z,15.67
2019-01-21T12:28:41.459Z,14.63
2019-01-21T12:31:53.842Z,15.77
2019-01-21T12:34:47.598Z,18.30
2019-01-21T12:37:39.114Z,16.03
2019-01-21T12:40:18.258Z,16.50
2019-01-21T12:43:20.776Z,15.90
2019-01-21T12:46:31.704Z,16.70
2019-01-21T12:49:40.353Z,16.17
2019-01-21T12:52:35.688Z,16.20
2019-01-21T12:55:28.781Z,16.63
2019-01-21T12:58:37.322Z,15.10
2019-01-21T13:01:45.218Z,14.90
2019-01-21T13:04:34.881Z,14.63
2019-01-21T13:07:39.328Z,14.80
2019-01-21T13:10:33.210Z,14.20
2019-01-21T13:13:57.166Z,13.13
2019-01-21T13:16:39.716Z,14.30
2019-01-21T13:19:46.184Z,14.73
2019-01-21T13:22:51.640Z,15.80
2019-01-21T13:26:08.925Z,15.10
2019-01-21T13:28:57.730Z,14.67
2019-01-21T13:31:56.589Z,14.87
2019-01-21T13:34:53.782Z,15.93
2019-01-21T13:37:56.795Z,14.17
2019-01-21T13:40:59.541Z,15.80
2019-01-21T13:43:39.928Z,23.57
2019-01-21T13:46:20.916Z,22.57
2019-01-21T13:49:12.299Z,26.40
2019-01-21T13:52:09.667Z,22.67
2019-01-21T13:55:18.126Z,22.13
2019-01-21T13:58:27.366Z,18.73
2019-01-21T14:01:01.697Z,16.57
2019-01-21T14:03:46.352Z,18.07
2019-01-21T14:06:44.401Z,17.13
2019-01-21T14:09:36.450Z,17.63
2019-01-21T14:12:54.982Z,18.10
2019-01-21T14:15:49.654Z,17.30
2019-01-21T14:19:05.251Z,18.97
2019-01-21T14:22:14.245Z,17.17
2019-01-21T14:24:54.398Z,17.90
2019-01-21T14:27:50.480Z,18.70
2019-01-21T14:30:54.766Z,18.70
2019-01-21T14:34:06.401Z,16.90
2019-01-21T14:37:04.693Z,13.90
2019-01-21T14:39:49.162Z,15.27
2019-01-21T14:42:57.564Z,15.53
2019-01-21T14:46:34.322Z,13.30
2019-01-21T14:50:11.255Z,16.70
2019-01-21T14:53:26.551Z,16.07
2019-01-21T14:56:29.047Z,15.37
2019-01-21T14:59:41.443Z,19.47
2019-01-21T15:02:42.061Z,20.10
2019-01-21T15:05:47.117Z,16.90
2019-01-21T15:08:27.120Z,16.30
2019-01-21T15:12:00.862Z,14.13
2019-01-21T15:15:12.175Z,15.10
2019-01-21T15:18:20.818Z,14.40
2019-01-21T15:21:05.938Z,13.63
2019-01-21T15:23:57.730Z,15.10
2019-01-21T15:26:32.933Z,14.40
2019-01-21T15:29:40.993Z,13.50
2019-01-21T15:33:01.246Z,16.00
2019-01-21T15:35:54.980Z,16.37
2019-01-21T15:39:10.359Z,14.53
2019-01-21T15:42:22.857Z,14.33
2019-01-21T15:45:23.761Z,14.93
2019-01-21T15:48:03.926Z,15.70
2019-01-21T15:51:05.187Z,17.80
2019-01-21T15:53:58.824Z,16.30
2019-01-21T15:57:04.442Z,16.10
2019-01-21T16:00:18.162Z,14.93
2019-01-21T16:03:13.403Z,17.80
2019-01-21T16:06:08.256Z,17.70
2019-01-21T16:08:49.994Z,15.03
2019-01-21T16:11:44.435Z,16.87
2019-01-21T16:14:38.640Z,16.80
2019-01-21T16:17:36.762Z,17.43
2019-01-21T16:20:21.592Z,27.97
2019-01-21T16:23:39.714Z,20.73
2019-01-21T16:26:24.890Z,15.23
2019-01-21T16:29:16.386Z,16.87
2019-01-21T16:32:01.140Z,18.70
2019-01-21T16:35:31.945Z,16.17
2019-01-21T16:38:27.498Z,14.60
2019-01-21T16:41:36.789Z,14.50
2019-01-21T16:44:04.252Z,13.80
2019-01-21T16:46:31.650Z,15.90
2019-01-21T16:48:59.042Z,14.80
2019-01-21T16:51:26.474Z,18.43
2019-01-21T16:53:53.894Z,14.70
2019-01-21T16:56:21.306Z,17.10
2019-01-21T16:58:48.772Z,15.30
2019-01-21T17:01:16.378Z,16.43
2019-01-21T17:03:44.118Z,18.23
2019-01-21T17:06:11.699Z,18.80
2019-01-21T17:08:39.098Z,17.53
2019-01-21T17:11:06.506Z,14.60
2019-01-21T17:13:34.070Z,17.87
2019-01-21T17:16:01.468Z,19.47
2019-01-21T17:18:28.868Z,16.90
2019-01-21T17:20:56.294Z,20.67
2019-01-21T17:23:23.702Z,29.07
2019-01-21T17:25:51.102Z,27.90
2019-01-21T17:28:18.655Z,29.70
2019-01-21T17:30:46.062Z,28.43
2019-01-21T17:33:13.475Z,23.67
2019-01-21T17:35:41.040Z,20.00
2019-01-21T17:38:08.442Z,17.10
2019-01-21T17:40:35.832Z,15.47
2019-01-21T17:43:03.934Z,15.27
2019-01-21T17:45:31.336Z,18.67
2019-01-21T17:47:58.735Z,22.43
2019-01-21T17:50:26.204Z,18.07
2019-01-21T17:52:53.625Z,16.70
2019-01-21T17:55:21.034Z,18.43
2019-01-21T17:57:48.717Z,19.30
2019-01-21T18:00:20.974Z,20.60
2019-01-21T18:02:48.496Z,19.03
2019-01-21T18:05:16.643Z,16.57
2019-01-21T18:07:44.062Z,18.00
2019-01-21T18:10:12.903Z,17.33
2019-01-21T18:12:40.348Z,16.90
2019-01-21T18:15:09.802Z,20.03
2019-01-21T18:17:37.207Z,16.03
2019-01-21T18:20:07.798Z,15.30
2019-01-21T18:22:35.191Z,16.77
2019-01-21T18:25:03.101Z,17.60
2019-01-21T18:27:30.843Z,16.23
2019-01-21T18:29:58.246Z,16.00
2019-01-21T18:32:26.771Z,15.80
2019-01-21T18:34:54.568Z,15.43
2019-01-21T18:37:21.954Z,15.07
2019-01-21T18:39:52.477Z,17.30
2019-01-21T18:42:19.927Z,20.70
2019-01-21T18:44:47.328Z,19.23
2019-01-21T18:47:14.715Z,16.33
2019-01-21T18:49:42.303Z,17.30
2019-01-21T18:52:09.704Z,21.37
2019-01-21T18:54:37.098Z,17.40
2019-01-21T18:57:04.693Z,18.67
2019-01-21T18:59:32.470Z,20.03
2019-01-21T19:02:00.075Z,18.77
2019-01-21T19:04:27.703Z,17.53
2019-01-21T19:06:55.090Z,21.53
2019-01-21T19:09:22.485Z,18.40
2019-01-21T19:11:49.934Z,19.90
2019-01-21T19:14:17.344Z,19.03
2019-01-21T19:16:44.768Z,21.03
2019-01-21T19:19:13.114Z,21.53
2019-01-21T19:21:40.553Z,18.50
2019-01-21T19:24:07.918Z,21.10
2019-01-21T19:26:35.350Z,20.90
2019-01-21T19:29:02.794Z,22.80
2019-01-21T19:31:30.261Z,20.57
2019-01-21T19:33:57.706Z,18.70
2019-01-21T19:36:25.018Z,17.83
2019-01-21T19:38:54.314Z,18.17
2019-01-21T19:41:22.058Z,16.17
2019-01-21T19:43:49.692Z,17.50
2019-01-21T19:46:17.200Z,21.20
2019-01-21T19:48:44.653Z,21.10
2019-01-21T19:51:12.126Z,21.00
2019-01-21T19:53:39.578Z,22.93
2019-01-21T19:56:07.042Z,22.40
2019-01-21T19:58:34.556Z,20.17
2019-01-21T20:01:02.304Z,23.47
2019-01-21T20:03:30.370Z,22.00
2019-01-21T20:05:57.965Z,22.90
2019-01-21T20:08:26.400Z,23.80
2019-01-21T20:10:54.290Z,23.93
2019-01-21T20:13:21.740Z,21.60
2019-01-21T20:15:49.243Z,20.60
2019-01-21T20:18:16.708Z,19.47
2019-01-21T20:20:44.125Z,18.80
2019-01-21T20:23:11.869Z,23.27
2019-01-21T20:25:39.365Z,19.70
2019-01-21T20:28:06.978Z,22.57
2019-01-21T20:30:34.444Z,19.23
2019-01-21T20:33:01.900Z,18.97
2019-01-21T20:35:29.455Z,20.20
2019-01-21T20:37:56.927Z,24.93
2019-01-21T20:40:25.600Z,23.80
2019-01-21T20:42:53.127Z,25.83
2019-01-21T20:45:21.449Z,25.10
2019-01-21T20:47:48.929Z,21.13
2019-01-21T20:50:19.132Z,19.67
2019-01-21T20:52:46.545Z,19.07
2019-01-21T20:55:14.813Z,24.90
2019-01-21T20:57:42.201Z,25.77
2019-01-21T21:00:13.134Z,23.40
2019-01-21T21:02:40.887Z,21.50
2019-01-21T21:05:08.685Z,21.03
2019-01-21T21:07:36.125Z,24.17
2019-01-21T21:10:05.122Z,19.00
2019-01-21T21:12:32.504Z,18.13
2019-01-21T21:14:59.950Z,19.20
2019-01-21T21:17:27.426Z,22.63
2019-01-21T21:19:54.821Z,23.30
2019-01-21T21:22:22.288Z,21.37
2019-01-21T21:24:49.739Z,18.60
2019-01-21T21:27:17.243Z,19.70
2019-01-21T21:29:44.689Z,18.17
2019-01-21T21:32:12.158Z,22.90
2019-01-21T21:34:39.557Z,22.90
2019-01-21T21:37:07.064Z,22.77
2019-01-21T21:39:34.542Z,24.23
2019-01-21T21:42:01.939Z,20.77
2019-01-21T21:44:29.630Z,23.63
2019-01-21T21:46:57.117Z,23.37
2019-01-21T21:49:24.756Z,17.83
2019-01-21T21:51:52.306Z,20.50
2019-01-21T21:54:19.756Z,19.93
2019-01-21T21:56:47.154Z,20.10
2019-01-21T21:59:14.845Z,20.00
2019-01-21T22:01:42.288Z,25.20
2019-01-21T22:04:10.062Z,21.53
2019-01-21T22:06:37.506Z,24.37
2019-01-21T22:09:06.234Z,29.80
2019-01-21T22:11:33.605Z,26.90
2019-01-21T22:14:00.991Z,23.50
2019-01-21T22:16:28.449Z,22.03
2019-01-21T22:18:55.835Z,22.63
2019-01-21T22:21:23.248Z,26.50
2019-01-21T22:23:51.484Z,21.40
2019-01-21T22:26:18.877Z,20.47
2019-01-21T22:28:46.296Z,18.17
2019-01-21T22:31:13.958Z,19.93
2019-01-21T22:33:41.384Z,17.30
2019-01-21T22:36:08.785Z,20.07
2019-01-21T22:38:36.207Z,24.80
2019-01-21T22:41:03.601Z,22.50
2019-01-21T22:43:30.998Z,23.10
2019-01-21T22:45:58.538Z,21.07
2019-01-21T22:48:25.950Z,20.13
2019-01-21T22:50:53.357Z,17.70
2019-01-21T22:53:20.812Z,19.40
2019-01-21T22:55:48.202Z,20.80
2019-01-21T22:58:15.611Z,20.37
2019-01-21T23:01:12.560Z,18.40
2019-01-21T23:03:40.258Z,18.20
2019-01-21T23:06:07.749Z,17.17
2019-01-21T23:08:35.682Z,20.17
2019-01-21T23:11:03.282Z,23.00
2019-01-21T23:13:30.678Z,22.73
2019-01-21T23:15:58.374Z,23.93
2019-01-21T23:18:25.768Z,27.20
2019-01-21T23:20:53.259Z,27.80
2019-01-21T23:23:20.715Z,26.20
2019-01-21T23:25:48.124Z,30.53
2019-01-21T23:28:15.522Z,31.37
2019-01-21T23:30:43.143Z,28.43
2019-01-21T23:33:10.541Z,25.33
2019-01-21T23:35:38.144Z,26.10
2019-01-21T23:38:05.581Z,27.27
2019-01-21T23:40:32.975Z,28.30
2019-01-21T23:43:00.378Z,26.97
2019-01-21T23:45:27.918Z,25.93
2019-01-21T23:47:55.312Z,22.00
2019-01-21T23:50:23.117Z,22.43
2019-01-21T23:52:56.021Z,24.20
2019-01-21T23:55:19.758Z,24.80
2019-01-21T23:57:47.154Z,25.00
